• Join FlightAware (Why Join?)
  • Login
  • US Flag 
Trick or treat! (Boo!!) 
07:38AM EDT


 

Airport Tracker/Info


-or-


 

Live Flight TrackerFlight Track Log ✈ KAP150 ✈ 13-May-2013 ✈ KBOS - KACK

Flight Track Log - Related Links

Times and Time Zones

All times are in EDT time to prevent confusion due to time zone crossing. See the KAP150 flight status page for this flight to view local times or setup timezone preferences in your user account.

Time Position Orientation Groundspeed Altitude Reporting Facility
EDT Latitude Longitude Course Direction KTS MPH feet Rate Location/Type
03:16PM 42.3667 -71.0167 200° South 91 105 500  Level KA90
03:18PM 42.3333 -71.0333 200° South 115 132 1,400 720 Climbing KA90
03:19PM 42.3000 -71.0333 180° South 121 139 2,200 480 Climbing KA90
03:20PM 42.2667 -71.0000 143° Southeast 135 155 2,400 120 Climbing KA90
03:21PM 42.2333 -70.9667 143° Southeast 166 191 2,500  Climbing KA90
03:22PM 42.2000 -70.9333 143° Southeast 164 189 2,500  Level KA90
03:22PM 42.1667 -70.9000 143° Southeast 160 184 2,500  Level KA90
03:24PM 42.1167 -70.8833 166° South 172 198 2,500  Level KA90
03:25PM 42.0833 -70.8500 143° Southeast 163 188 2,500  Level KA90
03:27PM 42.0206 -70.7894 144° Southeast  Level Estimated
03:34PM 41.7952 -70.5730 144° Southeast  Level Estimated
03:35PM 41.7629 -70.5422 145° Southeast  Level Estimated
03:36PM 41.7307 -70.5115 145° Southeast  Level Estimated
03:37PM 41.6984 -70.4807 145° Southeast  Level Estimated
03:38PM 41.6662 -70.4500 145° Southeast  Level Estimated
03:39PM 41.6339 -70.4194 145° Southeast  Level Estimated
03:40PM 41.6016 -70.3887 145° Southeast  Level Estimated
03:41PM 41.5693 -70.3581 145° Southeast  Level Estimated
03:42PM 41.5370 -70.3275 145° Southeast  Level Estimated
03:43PM 41.5047 -70.2970 145° Southeast  Level Estimated
03:44PM 41.4724 -70.2665 145° Southeast  Level Estimated
03:45PM 41.4401 -70.2360 145° Southeast  Level Estimated
03:46PM 41.4078 -70.2055 145° Southeast  Level Estimated
03:47PM 41.3755 -70.1751 145° Southeast  Level Estimated
03:48PM 41.3431 -70.1447 145° Southeast  Level Estimated
03:49PM 41.3108 -70.1143 145° Southeast  Level Estimated
03:50PM 41.2784 -70.0840 145° Southeast  Level Estimated
03:51PM 41.2531 -70.0603 145° Southeast  Level Estimated
03:52PM 41.2531 -70.0603 72° East  Level Estimated
03:53PM 41.2531 -70.0603 72° East  Level Estimated
03:54PM 41.2531 -70.0603 72° East  Level Estimated
03:55PM 41.2531 -70.0603 72° East  Level Estimated
03:56PM 41.2531 -70.0603 72° East  Level Estimated
03:57PM 41.2531 -70.0603 72° East  Level Estimated
03:58PM 41.2531 -70.0603 72° East  Level Estimated
03:59PM 41.2531 -70.0603 72° East  Level Estimated
04:00PM 41.2531 -70.0603 72° East  Level Estimated
04:01PM 41.2531 -70.0603 72° East  Level Estimated
04:02PM 41.2531 -70.0603 72° East  Level Estimated
04:03PM 41.2531 -70.0603 72° East  Level Estimated
04:04PM 41.2531 -70.0603 72° East  Level Estimated
04:05PM 41.2531 -70.0603 72° East  Level Estimated
04:06PM 41.2531 -70.0603 72° East  Level Estimated
04:07PM 41.2531 -70.0603 72° East  Level Estimated
04:08PM 41.2531 -70.0603 72° East  Level Estimated
04:09PM 41.2531 -70.0603 72° East  Level Estimated
04:10PM 41.2531 -70.0603 72° East  Level Estimated
04:11PM 41.2531 -70.0603 72° East  Level Estimated
04:12PM 41.2531 -70.0603 72° East  Level Estimated